ADDS METAR Data INFO
IDs: Format: Raw Decoded Include TAF

Data at: 2047 UTC 24 Jun 2018

KMSP 241953Z 05010G17KT 10SM FEW043 SCT120 BKN140 OVC300 26/19 A2996 RMK AO2 SLP139 T02560189 $
KMSP 241853Z 07010KT 10SM SCT095 BKN180 OVC300 26/19 A2993 RMK AO2 LTG DSNT NE SLP131 CB DSNT NE MOV NE T02610194 $
KMSP 241753Z 08006KT 10SM BKN095 OVC300 26/19 A2996 RMK AO2 SLP139 PRESENT WX VCSH T02560189 10261 20206 50009 $
KMSP 241653Z 23004KT 10SM FEW040 OVC090 25/19 A2996 RMK AO2 SLP139 T02500189 $
KMSP 241553Z 18003KT 10SM FEW050 OVC090 24/18 A2994 RMK AO2 SLP132 T02440183 $
KMSP 241453Z 15006KT 10SM SCT055 BKN085 OVC300 24/19 A2993 RMK AO2 SLP129 T02390189 51023 $
KMSP 241353Z 09005KT 10SM SCT085 BKN300 24/19 A2991 RMK AO2 SLP124 T02390189 $
KMSP 241253Z 07004KT 10SM SCT090 BKN300 22/18 A2989 RMK AO2 SLP116 T02220178 $
KMSP 241153Z 08004KT 10SM FEW090 21/18 A2986 RMK AO2 SLP105 T02060178 10228 20194 $
KMSP 241053Z 09005KT 9SM SCT090 19/17 A2984 RMK AO2 SLP100 T01940167 $
KMSP 241048Z 09004KT 9SM SCT090 19/17 A2984 RMK AO2 $
KMSP 240953Z 13004KT 10SM FEW080 19/17 A2984
KMSP 240853Z 12004KT 10SM FEW080 20/17 A2984 RMK AO2 SLP098 T02000167 53006
KMSP 240753Z 00000KT 10SM FEW080 21/17 A2983 RMK AO2 SLP097 T02110167
KMSP 240653Z 12003KT 10SM CLR 21/17 A2982 RMK AO2 SLP093 T02110167
KMSP 240553Z 12003KT 10SM CLR 22/17 A2982 RMK AO2 SLP092 T02170167 10267 20217 402780178 51009
KMSP 240453Z 14003KT 10SM FEW090 23/16 A2981 RMK AO2 SLP089 T02280156
KMSP 240353Z 00000KT 10SM FEW090 SCT220 23/16 A2981 RMK AO2 SLP088 T02330156
KMSP 240253Z 21003KT 10SM FEW050 BKN220 25/15 A2979 RMK AO2 SLP081 T02500150 53016
KMSP 240153Z 20004KT 10SM FEW050 BKN220 25/16 A2977 RMK AO2 SLP074 T02500156
KMSP 240053Z 22008KT 10SM FEW050 BKN250 26/14 A2976 RMK AO2 SLP072 T02610144
KMSP 232353Z 21005KT 10SM FEW050 BKN250 27/14 A2974 RMK AO2 SLP066 T02670144 10278 20261 56004
KMSP 232253Z 22005KT 10SM SCT050 BKN250 27/14 A2974 RMK AO2 SLP067 T02720144
KMSP 232153Z 17007KT 10SM SCT050 BKN250 27/15 A2975 RMK AO2 SLP068 T02720150
KMSP 232053Z 20007KT 10SM SCT050 BKN250 27/15 A2975 RMK AO2 SLP070 T02670150 58007
KMSP 231953Z 24007KT 10SM SCT050 OVC250 28/14 A2976 RMK AO2 SLP073 T02780139
KMSP 231853Z 00000KT 10SM SCT049 BKN250 27/14 A2977 RMK AO2 SLP075 T02670139
KMSP 231753Z 24005KT 10SM BKN049 BKN250 27/14 A2977 RMK AO2 SLP077 T02670144 10267 20194 58001
KMSP 231653Z 27007KT 10SM SCT043 BKN250 27/15 A2977 RMK AO2 SLP076 T02670150
KMSP 231553Z 25006KT 10SM SCT040 BKN250 25/17 A2978 RMK AO2 SLP079 T02500167
KMSP 231453Z VRB03KT 8SM FEW150 BKN250 25/17 A2978 RMK AO2 SLP078 T02500167 50003
KMSP 231353Z 00000KT 7SM BKN250 23/18 A2979 RMK AO2 SLP081 T02280178
KMSP 231253Z 00000KT 8SM BKN250 21/17 A2977 RMK AO2 SLP076 T02110172
KMSP 231153Z 00000KT 8SM BKN250 19/17 A2977 RMK AO2 SLP074 T01890167 10217 20178 58007
KMSP 231053Z 00000KT 7SM FEW250 18/17 A2978 RMK AO2 SLP079 T01830167
KMSP 230953Z 00000KT 8SM FEW250 19/16 A2978 RMK AO2 SLP079 T01890161
KMSP 230853Z 00000KT 9SM CLR 20/16 A2979 RMK AO2 SLP081 T02000161 58005